Barbados Meteorological Services
Auto gathered TAF list
Powered by Apparatus software
For Flight AC975
Contact Number 1-(246)-535-0021/2/3/4/5/6
WEB: http://www.barbadosweather.org

**********************************************

2018/06/24 12:40
TAF TXKF 241135Z 2412/2512 19015KT 9999 FEW015


**********************************************
2018/06/24 12:13
TAF TLPL 241100Z 2412/2512 09022KT 9999 SCT026
TEMPO 2412/2506 SHRA BKN018 SCT040


**********************************************
2018/06/24 15:54
TAF TJSJ 241439Z 2415/2512 10015KT P6SM SCT025
FM242200 09013KT P6SM FEW025 SCT070


**********************************************
2018/06/24 13:59
TAF
AMD TFFR 241347Z 2413/2512 10012KT 9999 SCT030 BKN050
TEMPO 2414/2512 4000 SHRA BKN015TCU PROB30
TEMPO 2414/2512 VRB15G25KT 2000 SHRA FEW013CB BKN015


**********************************************
2018/06/24 12:07
TAF TBPB 241100Z 2412/2512 09024KT 9999 SCT018 PROB30
TEMPO 2412/2424 09026G40KT 5000 SHRA BKN014 SCT045


**********************************************
2018/06/24 12:13
TAF TAPA 241107Z 2412/2512 09016KT 9999 SCT020


**********************************************
2018/06/24 16:04
TAF
AMD KPHL 241601Z 2416/2518 250
TEMPO 2417/2421 BKN035
FM242100 25010G15KT P6SM BKN050
TEMPO 2422/2502 5SM -TSRA BKN035CB
FM250500 32006KT P6SM SCT200


**********************************************
2018/06/24 12:22
TAF KORF 241120Z 2412/2512 22008KT P6SM BKN080
FM241800 23010KT P6SM SCT050 SCT100
FM250000 23007KT P6SM BKN050
FM250800 28005KT P6SM SCT120
FM251100 32005KT P6SM SCT200


**********************************************
2018/06/24 15:38
TAF
AMD KJFK 241430Z 2415/2518 22006KT 6SM BR SCT006 BKN015
FM241800 18012KT P6SM SCT040 BKN200
TEMPO 2423/2502 SHRA BKN040
FM250200 25006KT P6SM SCT030 BKN250
FM250600 29008KT P6SM FEW030 BKN250
FM250900 35014KT P6SM FEW030 BKN250
FM251400 34014G22KT P6SM SCT030 SCT250


**********************************************
2018/06/24 15:57
TAF
AMD KIAD 241454Z 2415/2518 VRB05KT P6SM SCT050 BKN110
FM241800 25007KT P6SM VCTS BKN050CB
FM242300 29007KT P6SM SCT050
FM250400 30006KT P6SM SCT200


**********************************************
2018/06/24 15:04
TAF
AMD KEWR 241502Z 2415/2518 23007KT P6SM SCT025 SCT250
TEMPO 2416/2418 BKN035
FM241800 23010G18KT P6SM BKN040
FM242100 24010G18KT P6SM VCTS BKN040CB
FM250100 28007KT P6SM VCSH SCT040 BKN250
FM250500 29009KT P6SM FEW030 BKN250
FM250800 35013KT P6SM FEW030 BKN250
FM251400 34013G21KT P6SM SCT030 SCT250


**********************************************
2018/06/24 12:38
TAF KCHS 241135Z 2412/2512 25006KT P6SM FEW045
FM241800 21011KT P6SM SCT050
FM250000 22007KT P6SM SCT040


**********************************************
2018/06/24 15:11
TAF
AMD KBOS 241506Z 2415/2518 25006KT P6SM BKN015
FM241700 15007KT P6SM SCT030 BKN050
FM242200 19007KT P6SM -SHRA OVC060
FM250300 24004KT P6SM VCSH OVC060
FM250500 30004KT P6SM VCSH OVC015
FM250900 34006KT P6SM BKN008
FM251400 01008KT P6SM VCSH BKN035


**********************************************
2018/06/24 15:42
TAF CYYZ 241438Z 2415/2518 06006KT P6SM SCT005 OVC012
TEMPO 2415/2418 3SM -SHRA BR BKN005 OVC012
FM241800 03008KT P6SM -SHRA SCT008 OVC020
TEMPO 2418/2420 6SM -SHRA BR BKN008 OVC015
FM242000 03010KT P6SM BKN030
TEMPO 2420/2422 P6SM -SHRA BKN020
FM242200 34010G20KT P6SM BKN090
FM250100 34012KT P6SM SCT050
BECMG 2510/2512 SKC
RMK NXT FCST BY 241800Z


**********************************************
2018/06/24 15:42
TAF CYUL 241438Z 2415/2512 24008KT P6SM FEW015 BKN140
FM242000 VRB03KT P6SM BKN050 OVC200
TEMPO 2420/2423 P6SM -SHRA
FM250300 03006KT P6SM BKN070
FM250600 01008KT P6SM FEW080
RMK NXT FCST BY 241800Z


**********************************************
2018/06/24 15:42
TAF TAF CYOW 241438Z 2415/2512 27005KT P6SM SCT140 BKN240
FM241800 33012KT P6SM BKN050
FM250200 35008KT P6SM SKC
RMK NXT FCST BY 241800Z


**********************************************
2018/06/24 12:42
TAF CYMX 241138Z 2412/2512 VRB03KT P6SM SCT015 BKN140
TEMPO 2412/2413 BKN015
FM241500 VRB03KT P6SM BKN060 OVC200
TEMPO 2420/2423 P6SM -SHRA
FM250300 01005KT P6SM BKN070
FM250600 01005KT P6SM FEW080
RMK NXT FCST BY 241800Z


**********************************************